createdAt,value
2019-03-16T00:03:58.211Z,1.30
2019-03-16T00:09:00.319Z,1.20
2019-03-16T00:14:02.487Z,1.40
2019-03-16T00:19:05.203Z,1.40
2019-03-16T00:24:07.366Z,1.30
2019-03-16T00:29:09.483Z,1.50
2019-03-16T00:34:11.541Z,1.32
2019-03-16T00:39:13.705Z,1.80
2019-03-16T00:44:15.784Z,2.10
2019-03-16T00:49:17.872Z,2.00
2019-03-16T00:54:21.393Z,1.90
2019-03-16T00:59:23.416Z,2.10
2019-03-16T01:04:25.729Z,1.90
2019-03-16T01:09:28.400Z,1.40
2019-03-16T01:14:30.463Z,1.95
2019-03-16T01:19:32.513Z,1.70
2019-03-16T01:24:34.710Z,2.10
2019-03-16T01:29:37.005Z,2.00
2019-03-16T01:34:39.109Z,1.80
2019-03-16T01:39:41.533Z,1.80
2019-03-16T01:44:44.044Z,1.50
2019-03-16T01:49:46.098Z,1.82
2019-03-16T01:54:50.162Z,1.90
2019-03-16T01:59:52.802Z,1.25
2019-03-16T02:04:54.980Z,1.30
2019-03-16T02:09:57.311Z,1.57
2019-03-16T02:14:59.378Z,1.67
2019-03-16T02:20:02.400Z,2.37
2019-03-16T02:25:04.659Z,1.70
2019-03-16T02:30:07.017Z,1.90
2019-03-16T02:35:09.327Z,1.62
2019-03-16T02:40:11.583Z,1.80
2019-03-16T02:45:13.735Z,1.87
2019-03-16T02:50:16.185Z,1.60
2019-03-16T02:55:18.228Z,1.82
2019-03-16T03:00:20.219Z,1.92
2019-03-16T03:05:22.471Z,1.80
2019-03-16T03:10:24.638Z,1.70
2019-03-16T03:15:26.804Z,1.85
2019-03-16T03:20:28.910Z,1.90
2019-03-16T03:25:30.989Z,1.85
2019-03-16T03:30:33.093Z,2.05
2019-03-16T03:35:35.180Z,1.67
2019-03-16T03:40:37.341Z,1.70
2019-03-16T03:45:39.424Z,1.70
2019-03-16T03:50:41.848Z,2.20
2019-03-16T03:55:44.484Z,1.82
2019-03-16T04:00:46.536Z,2.02
2019-03-16T04:05:48.640Z,2.10
2019-03-16T04:10:50.857Z,2.20
2019-03-16T04:15:52.918Z,1.72
2019-03-16T04:20:55.030Z,2.42
2019-03-16T04:25:57.622Z,2.40
2019-03-16T04:30:59.769Z,2.30
2019-03-16T04:36:01.936Z,2.22
2019-03-16T04:41:06.218Z,2.10
2019-03-16T04:46:08.317Z,2.00
2019-03-16T04:51:10.340Z,2.10
2019-03-16T04:56:12.519Z,2.33
2019-03-16T05:01:14.565Z,2.45
2019-03-16T05:06:16.582Z,2.70
2019-03-16T05:11:18.657Z,2.92
2019-03-16T05:16:20.744Z,3.80
2019-03-16T05:21:23.134Z,4.03
2019-03-16T05:26:25.291Z,4.35
2019-03-16T05:31:27.389Z,3.80
2019-03-16T05:36:29.841Z,4.08
2019-03-16T05:41:32.108Z,4.72
2019-03-16T05:46:34.186Z,4.60
2019-03-16T05:51:36.303Z,5.03
2019-03-16T05:56:38.504Z,4.78
2019-03-16T06:01:40.945Z,5.33
2019-03-16T06:06:43.059Z,6.33
2019-03-16T06:11:45.160Z,5.35
2019-03-16T06:16:47.203Z,6.33
2019-03-16T06:21:49.673Z,4.67
2019-03-16T06:26:51.807Z,4.50
2019-03-16T06:31:54.252Z,4.70
2019-03-16T06:36:56.358Z,3.62
2019-03-16T06:41:58.721Z,3.20
2019-03-16T06:47:00.863Z,2.00
2019-03-16T06:52:03.121Z,1.32
2019-03-16T06:57:05.442Z,1.20
2019-03-16T07:02:08.442Z,1.20
2019-03-16T07:07:10.514Z,1.05
2019-03-16T07:12:12.500Z,1.20
2019-03-16T07:17:14.556Z,1.30
2019-03-16T07:22:16.945Z,1.45
2019-03-16T07:27:25.963Z,1.30
2019-03-16T07:32:22.990Z,1.50
2019-03-16T07:37:31.784Z,1.60
2019-03-16T07:42:29.677Z,1.20
2019-03-16T07:47:32.032Z,1.80
2019-03-16T07:52:39.304Z,2.35
2019-03-16T07:57:42.173Z,2.08
2019-03-16T08:02:44.540Z,2.30
2019-03-16T08:07:46.629Z,2.92
2019-03-16T08:12:49.338Z,2.80
2019-03-16T08:17:51.445Z,3.62
2019-03-16T08:22:53.544Z,3.60
2019-03-16T08:27:56.162Z,3.50
2019-03-16T08:32:58.197Z,3.12
2019-03-16T08:38:02.575Z,2.87
2019-03-16T08:43:05.010Z,2.40
2019-03-16T08:48:07.058Z,2.58
2019-03-16T08:53:09.714Z,2.80
2019-03-16T08:58:11.859Z,2.30
2019-03-16T09:03:14.382Z,2.37
2019-03-16T09:08:16.893Z,2.22
2019-03-16T09:13:19.107Z,2.42
2019-03-16T09:18:21.407Z,2.15
2019-03-16T09:23:23.742Z,1.87
2019-03-16T09:28:25.934Z,2.08
2019-03-16T09:33:28.361Z,2.20
2019-03-16T09:38:31.023Z,1.80
2019-03-16T09:43:33.808Z,1.70
2019-03-16T09:48:35.888Z,1.80
2019-03-16T09:53:38.045Z,1.45
2019-03-16T09:58:40.217Z,1.70
2019-03-16T10:03:42.373Z,1.80
2019-03-16T10:08:45.006Z,1.80
2019-03-16T10:13:47.125Z,1.72
2019-03-16T10:18:49.331Z,1.98
2019-03-16T10:23:51.529Z,1.50
2019-03-16T10:28:53.609Z,1.77
2019-03-16T10:33:55.889Z,1.72
2019-03-16T10:38:58.092Z,1.50
2019-03-16T10:44:00.201Z,1.60
2019-03-16T10:49:02.280Z,1.40
2019-03-16T10:54:04.404Z,1.50
2019-03-16T10:59:06.477Z,1.45
2019-03-16T11:04:08.972Z,1.30
2019-03-16T11:09:11.024Z,1.30
2019-03-16T11:14:13.127Z,1.37
2019-03-16T11:19:15.236Z,1.15
2019-03-16T11:24:17.294Z,1.30
2019-03-16T11:29:21.054Z,1.30
2019-03-16T11:34:23.168Z,1.20
2019-03-16T11:39:25.440Z,1.20
2019-03-16T11:44:27.921Z,1.17
2019-03-16T11:49:30.629Z,1.20
2019-03-16T11:54:32.779Z,1.10
2019-03-16T11:59:35.009Z,1.12
2019-03-16T12:04:37.182Z,1.40
2019-03-16T12:09:39.467Z,0.90
2019-03-16T12:14:41.595Z,1.10
2019-03-16T12:19:43.802Z,1.20
2019-03-16T12:24:45.965Z,1.17
2019-03-16T12:29:48.124Z,1.30
2019-03-16T12:34:50.367Z,1.25
2019-03-16T12:39:52.535Z,1.20
2019-03-16T12:44:54.692Z,1.27
2019-03-16T12:49:56.782Z,1.15
2019-03-16T12:54:58.895Z,1.00
2019-03-16T13:00:01.016Z,1.27
2019-03-16T13:05:03.210Z,1.52
2019-03-16T13:10:06.792Z,1.90
2019-03-16T13:15:09.199Z,1.70
2019-03-16T13:20:11.921Z,1.50
2019-03-16T13:25:14.154Z,1.45
2019-03-16T13:30:16.718Z,1.60
2019-03-16T13:35:18.904Z,1.30
2019-03-16T13:40:21.049Z,1.47
2019-03-16T13:45:23.174Z,1.50
2019-03-16T13:50:25.364Z,1.60
2019-03-16T13:55:27.770Z,2.00
2019-03-16T14:00:29.975Z,1.85
2019-03-16T14:05:32.425Z,2.00
2019-03-16T14:10:34.502Z,2.42
2019-03-16T14:15:36.659Z,2.30
2019-03-16T14:20:39.172Z,2.50
2019-03-16T14:25:41.516Z,2.72
2019-03-16T14:30:45.196Z,2.22
2019-03-16T14:35:47.533Z,2.47
2019-03-16T14:40:49.661Z,2.33
2019-03-16T14:45:51.818Z,2.37
2019-03-16T14:50:54.207Z,2.42
2019-03-16T14:55:56.565Z,2.45
2019-03-16T15:00:58.661Z,2.47
2019-03-16T15:06:00.815Z,2.67
2019-03-16T15:11:03.161Z,3.20
2019-03-16T15:16:05.322Z,3.17
2019-03-16T15:21:07.681Z,2.95
2019-03-16T15:26:09.725Z,3.50
2019-03-16T15:31:11.753Z,3.22
2019-03-16T15:36:15.061Z,2.75
2019-03-16T15:41:17.131Z,2.33
2019-03-16T15:46:19.393Z,2.47
2019-03-16T15:51:23.913Z,2.17
2019-03-16T15:56:27.722Z,2.85
2019-03-16T16:01:29.633Z,2.20
2019-03-16T16:06:31.769Z,2.12
2019-03-16T16:11:33.863Z,2.35
2019-03-16T16:16:35.981Z,3.33
2019-03-16T16:21:38.048Z,3.65
2019-03-16T16:26:40.485Z,3.52
2019-03-16T16:31:43.076Z,4.10
2019-03-16T16:36:45.190Z,3.45
2019-03-16T16:41:47.644Z,2.83
2019-03-16T16:46:49.695Z,2.40
2019-03-16T16:51:51.890Z,2.20
2019-03-16T16:56:53.974Z,2.10
2019-03-16T17:01:56.132Z,2.20
2019-03-16T17:06:58.566Z,2.12
2019-03-16T17:12:00.607Z,2.20
2019-03-16T17:17:02.949Z,2.30
2019-03-16T17:22:05.011Z,2.35
2019-03-16T17:27:08.646Z,2.20
2019-03-16T17:32:12.996Z,2.52
2019-03-16T17:37:15.717Z,2.50
2019-03-16T17:42:17.733Z,2.50
2019-03-16T17:47:20.715Z,2.50
2019-03-16T17:52:22.778Z,2.30
2019-03-16T17:57:24.856Z,2.47
2019-03-16T18:02:27.968Z,2.00
2019-03-16T18:07:30.439Z,2.10
2019-03-16T18:12:33.152Z,2.00
2019-03-16T18:17:35.369Z,2.52
2019-03-16T18:22:37.863Z,2.30
2019-03-16T18:27:40.454Z,2.20
2019-03-16T18:32:42.559Z,2.27
2019-03-16T18:37:45.054Z,2.37
2019-03-16T18:42:47.555Z,2.60
2019-03-16T18:47:49.847Z,2.27
2019-03-16T18:52:52.080Z,2.33
2019-03-16T18:57:56.778Z,2.17
2019-03-16T19:02:58.826Z,2.00
2019-03-16T19:08:01.145Z,2.45
2019-03-16T19:13:03.212Z,2.50
2019-03-16T19:18:05.834Z,2.17
2019-03-16T19:23:08.122Z,1.90
2019-03-16T19:28:10.374Z,2.20
2019-03-16T19:33:12.806Z,2.25
2019-03-16T19:38:16.997Z,1.70
2019-03-16T19:43:19.392Z,1.62
2019-03-16T19:48:22.074Z,1.82
2019-03-16T19:53:24.226Z,1.70
2019-03-16T19:58:26.397Z,1.72
2019-03-16T20:03:28.585Z,1.92
2019-03-16T20:08:30.633Z,1.72
2019-03-16T20:13:33.065Z,1.75
2019-03-16T20:18:35.171Z,1.90
2019-03-16T20:23:37.343Z,2.00
2019-03-16T20:28:39.382Z,2.33
2019-03-16T20:33:41.492Z,1.75
2019-03-16T20:38:43.580Z,2.10
2019-03-16T20:43:45.689Z,1.77
2019-03-16T20:48:48.019Z,1.98
2019-03-16T20:53:50.195Z,1.72
2019-03-16T20:58:52.387Z,1.67
2019-03-16T21:03:54.396Z,2.20
2019-03-16T21:09:03.192Z,2.15
2019-03-16T21:14:00.855Z,1.40
2019-03-16T21:19:03.085Z,2.15
2019-03-16T21:24:07.429Z,1.70
2019-03-16T21:29:09.446Z,1.70
2019-03-16T21:34:11.551Z,2.10
2019-03-16T21:39:16.846Z,1.90
2019-03-16T21:44:18.214Z,2.22
2019-03-16T21:49:20.513Z,2.10
2019-03-16T21:54:22.591Z,2.40
2019-03-16T21:59:26.367Z,2.08
2019-03-16T22:04:28.890Z,2.40
2019-03-16T22:09:31.065Z,2.62
2019-03-16T22:14:33.127Z,2.30
2019-03-16T22:19:35.258Z,2.20
2019-03-16T22:24:37.672Z,2.40
2019-03-16T22:29:39.758Z,1.95
2019-03-16T22:34:41.900Z,2.55
2019-03-16T22:39:44.069Z,2.35
2019-03-16T22:44:46.162Z,2.20
2019-03-16T22:49:48.305Z,2.35
2019-03-16T22:54:50.456Z,2.08
2019-03-16T22:59:52.737Z,2.47
2019-03-16T23:04:54.781Z,1.90
2019-03-16T23:09:56.888Z,2.37
2019-03-16T23:14:58.943Z,2.40
2019-03-16T23:20:03.573Z,2.02
2019-03-16T23:25:05.722Z,2.05
2019-03-16T23:30:08.785Z,1.90
2019-03-16T23:35:10.883Z,2.30
2019-03-16T23:40:13.240Z,2.10
2019-03-16T23:45:15.757Z,2.33
2019-03-16T23:50:17.902Z,2.15
2019-03-16T23:55:20.004Z,2.30
